sensor_id;sensor_type;location;lat;lon;timestamp;temperature;humidity
48994;DHT22;34804;49.214;12.276;2023-05-01T00:02:09;5.10;85.70
48994;DHT22;34804;49.214;12.276;2023-05-01T00:04:36;5.10;85.70
48994;DHT22;34804;49.214;12.276;2023-05-01T00:07:03;5.30;85.30
48994;DHT22;34804;49.214;12.276;2023-05-01T00:09:30;5.30;85.70
48994;DHT22;34804;49.214;12.276;2023-05-01T00:11:59;5.30;86.20
48994;DHT22;34804;49.214;12.276;2023-05-01T00:14:26;5.30;86.50
48994;DHT22;34804;49.214;12.276;2023-05-01T00:16:54;5.40;85.60
48994;DHT22;34804;49.214;12.276;2023-05-01T00:19:21;5.30;85.20
48994;DHT22;34804;49.214;12.276;2023-05-01T00:21:48;5.20;85.40
48994;DHT22;34804;49.214;12.276;2023-05-01T00:24:18;5.20;85.40
48994;DHT22;34804;49.214;12.276;2023-05-01T00:26:44;5.20;85.80
48994;DHT22;34804;49.214;12.276;2023-05-01T00:29:11;5.10;86.20
48994;DHT22;34804;49.214;12.276;2023-05-01T00:31:38;5.00;86.40
48994;DHT22;34804;49.214;12.276;2023-05-01T00:34:08;5.10;86.00
48994;DHT22;34804;49.214;12.276;2023-05-01T00:36:36;4.90;86.00
48994;DHT22;34804;49.214;12.276;2023-05-01T00:39:03;4.90;86.20
48994;DHT22;34804;49.214;12.276;2023-05-01T00:41:30;5.10;86.30
48994;DHT22;34804;49.214;12.276;2023-05-01T00:43:56;5.20;86.00
48994;DHT22;34804;49.214;12.276;2023-05-01T00:46:24;5.30;86.10
48994;DHT22;34804;49.214;12.276;2023-05-01T00:48:51;5.40;85.20
48994;DHT22;34804;49.214;12.276;2023-05-01T00:51:20;5.30;85.60
48994;DHT22;34804;49.214;12.276;2023-05-01T00:53:47;5.30;85.50
48994;DHT22;34804;49.214;12.276;2023-05-01T00:56:15;5.30;86.20
48994;DHT22;34804;49.214;12.276;2023-05-01T00:58:44;5.20;85.50
48994;DHT22;34804;49.214;12.276;2023-05-01T01:01:13;5.10;85.90
48994;DHT22;34804;49.214;12.276;2023-05-01T01:03:40;5.00;86.10
48994;DHT22;34804;49.214;12.276;2023-05-01T01:06:19;5.00;86.00
48994;DHT22;34804;49.214;12.276;2023-05-01T01:11:35;4.90;86.20
48994;DHT22;34804;49.214;12.276;2023-05-01T01:14:10;4.90;86.10
48994;DHT22;34804;49.214;12.276;2023-05-01T01:16:43;4.70;86.60
48994;DHT22;34804;49.214;12.276;2023-05-01T01:19:23;4.70;87.60
48994;DHT22;34804;49.214;12.276;2023-05-01T01:22:09;4.70;87.40
48994;DHT22;34804;49.214;12.276;2023-05-01T01:33:54;4.80;87.50
48994;DHT22;34804;49.214;12.276;2023-05-01T01:36:30;4.70;86.50
48994;DHT22;34804;49.214;12.276;2023-05-01T01:39:13;4.60;87.00
48994;DHT22;34804;49.214;12.276;2023-05-01T01:41:44;4.70;87.40
48994;DHT22;34804;49.214;12.276;2023-05-01T01:44:33;4.60;86.60
48994;DHT22;34804;49.214;12.276;2023-05-01T01:47:04;4.50;87.20
48994;DHT22;34804;49.214;12.276;2023-05-01T01:49:34;4.50;86.70
48994;DHT22;34804;49.214;12.276;2023-05-01T01:52:04;4.50;87.00
48994;DHT22;34804;49.214;12.276;2023-05-01T01:54:42;4.40;87.30
48994;DHT22;34804;49.214;12.276;2023-05-01T01:57:12;4.50;87.40
48994;DHT22;34804;49.214;12.276;2023-05-01T01:59:40;4.60;86.80
48994;DHT22;34804;49.214;12.276;2023-05-01T02:02:08;4.60;86.70
48994;DHT22;34804;49.214;12.276;2023-05-01T02:04:36;4.60;86.10
48994;DHT22;34804;49.214;12.276;2023-05-01T02:07:05;4.40;86.50
48994;DHT22;34804;49.214;12.276;2023-05-01T02:09:33;4.40;87.60
48994;DHT22;34804;49.214;12.276;2023-05-01T02:12:04;4.30;86.50
48994;DHT22;34804;49.214;12.276;2023-05-01T02:14:33;4.30;87.20
48994;DHT22;34804;49.214;12.276;2023-05-01T02:17:01;4.30;87.20
48994;DHT22;34804;49.214;12.276;2023-05-01T02:19:31;4.30;86.70
48994;DHT22;34804;49.214;12.276;2023-05-01T02:22:00;4.30;86.90
48994;DHT22;34804;49.214;12.276;2023-05-01T02:24:29;4.20;86.80
48994;DHT22;34804;49.214;12.276;2023-05-01T02:27:10;4.10;87.30
48994;DHT22;34804;49.214;12.276;2023-05-01T02:29:37;3.90;87.40
48994;DHT22;34804;49.214;12.276;2023-05-01T02:32:06;3.90;87.70
48994;DHT22;34804;49.214;12.276;2023-05-01T02:34:34;4.00;87.60
48994;DHT22;34804;49.214;12.276;2023-05-01T02:37:03;3.90;87.60
48994;DHT22;34804;49.214;12.276;2023-05-01T02:39:32;4.00;87.70
48994;DHT22;34804;49.214;12.276;2023-05-01T02:42:00;3.90;87.90
48994;DHT22;34804;49.214;12.276;2023-05-01T02:44:38;4.00;89.20
48994;DHT22;34804;49.214;12.276;2023-05-01T02:47:08;4.20;89.30
48994;DHT22;34804;49.214;12.276;2023-05-01T02:49:36;4.30;88.90
48994;DHT22;34804;49.214;12.276;2023-05-01T02:52:04;4.10;88.30
48994;DHT22;34804;49.214;12.276;2023-05-01T02:54:31;3.90;88.30
48994;DHT22;34804;49.214;12.276;2023-05-01T02:56:58;4.00;89.00
48994;DHT22;34804;49.214;12.276;2023-05-01T02:59:25;4.10;88.50
48994;DHT22;34804;49.214;12.276;2023-05-01T03:01:52;4.10;88.10
48994;DHT22;34804;49.214;12.276;2023-05-01T03:04:18;4.00;87.70
48994;DHT22;34804;49.214;12.276;2023-05-01T03:06:45;4.00;87.70
48994;DHT22;34804;49.214;12.276;2023-05-01T03:09:12;3.90;87.10
48994;DHT22;34804;49.214;12.276;2023-05-01T03:11:39;3.80;87.00
48994;DHT22;34804;49.214;12.276;2023-05-01T03:14:06;3.70;88.20
48994;DHT22;34804;49.214;12.276;2023-05-01T03:16:33;3.70;88.20
48994;DHT22;34804;49.214;12.276;2023-05-01T03:19:00;3.60;88.30
48994;DHT22;34804;49.214;12.276;2023-05-01T03:21:27;3.40;88.30
48994;DHT22;34804;49.214;12.276;2023-05-01T03:23:54;3.40;88.60
48994;DHT22;34804;49.214;12.276;2023-05-01T03:26:21;3.40;88.50
48994;DHT22;34804;49.214;12.276;2023-05-01T03:28:48;3.30;88.70
48994;DHT22;34804;49.214;12.276;2023-05-01T03:31:14;3.40;89.30
48994;DHT22;34804;49.214;12.276;2023-05-01T03:33:41;3.40;89.10
48994;DHT22;34804;49.214;12.276;2023-05-01T03:36:08;3.60;89.60
48994;DHT22;34804;49.214;12.276;2023-05-01T03:38:38;3.70;89.60
48994;DHT22;34804;49.214;12.276;2023-05-01T03:41:05;3.70;88.90
48994;DHT22;34804;49.214;12.276;2023-05-01T03:43:32;3.40;87.70
48994;DHT22;34804;49.214;12.276;2023-05-01T03:45:59;3.10;88.30
48994;DHT22;34804;49.214;12.276;2023-05-01T03:48:26;3.10;89.10
48994;DHT22;34804;49.214;12.276;2023-05-01T03:50:53;3.20;89.50
48994;DHT22;34804;49.214;12.276;2023-05-01T03:53:19;3.40;89.80
48994;DHT22;34804;49.214;12.276;2023-05-01T03:55:46;3.50;89.80
48994;DHT22;34804;49.214;12.276;2023-05-01T03:58:13;3.50;88.60
48994;DHT22;34804;49.214;12.276;2023-05-01T04:00:40;3.30;88.10
48994;DHT22;34804;49.214;12.276;2023-05-01T04:03:10;3.30;87.70
48994;DHT22;34804;49.214;12.276;2023-05-01T04:05:37;3.20;88.00
48994;DHT22;34804;49.214;12.276;2023-05-01T04:08:04;3.10;88.80
48994;DHT22;34804;49.214;12.276;2023-05-01T04:10:31;3.00;89.10
48994;DHT22;34804;49.214;12.276;2023-05-01T04:12:58;2.90;88.90
48994;DHT22;34804;49.214;12.276;2023-05-01T04:15:25;3.00;89.10
48994;DHT22;34804;49.214;12.276;2023-05-01T04:17:51;3.10;89.40
48994;DHT22;34804;49.214;12.276;2023-05-01T04:20:19;3.20;89.40
48994;DHT22;34804;49.214;12.276;2023-05-01T04:22:46;3.20;88.90
48994;DHT22;34804;49.214;12.276;2023-05-01T04:25:13;3.30;89.50
48994;DHT22;34804;49.214;12.276;2023-05-01T04:27:40;3.30;89.40
48994;DHT22;34804;49.214;12.276;2023-05-01T04:30:08;3.40;88.90
48994;DHT22;34804;49.214;12.276;2023-05-01T04:32:34;3.40;89.20
48994;DHT22;34804;49.214;12.276;2023-05-01T04:35:02;3.60;89.30
48994;DHT22;34804;49.214;12.276;2023-05-01T04:37:30;3.60;88.80
48994;DHT22;34804;49.214;12.276;2023-05-01T04:39:57;3.80;89.00
48994;DHT22;34804;49.214;12.276;2023-05-01T04:42:29;3.80;88.40
48994;DHT22;34804;49.214;12.276;2023-05-01T04:44:56;3.80;88.20
48994;DHT22;34804;49.214;12.276;2023-05-01T04:47:23;3.80;88.30
48994;DHT22;34804;49.214;12.276;2023-05-01T04:49:50;3.90;88.20
48994;DHT22;34804;49.214;12.276;2023-05-01T04:52:17;3.90;88.30
48994;DHT22;34804;49.214;12.276;2023-05-01T04:54:44;3.90;88.50
48994;DHT22;34804;49.214;12.276;2023-05-01T04:57:11;4.00;88.70
48994;DHT22;34804;49.214;12.276;2023-05-01T04:59:39;4.10;88.90
48994;DHT22;34804;49.214;12.276;2023-05-01T05:02:06;4.30;89.00
48994;DHT22;34804;49.214;12.276;2023-05-01T05:04:32;4.50;89.10
48994;DHT22;34804;49.214;12.276;2023-05-01T05:06:59;4.60;89.10
48994;DHT22;34804;49.214;12.276;2023-05-01T05:09:26;4.70;89.30
48994;DHT22;34804;49.214;12.276;2023-05-01T05:11:53;4.90;89.20
48994;DHT22;34804;49.214;12.276;2023-05-01T05:14:20;5.00;89.30
48994;DHT22;34804;49.214;12.276;2023-05-01T05:16:47;5.20;89.40
48994;DHT22;34804;49.214;12.276;2023-05-01T05:19:15;5.30;88.90
48994;DHT22;34804;49.214;12.276;2023-05-01T05:21:42;5.40;88.40
48994;DHT22;34804;49.214;12.276;2023-05-01T05:24:09;5.60;88.10
48994;DHT22;34804;49.214;12.276;2023-05-01T05:26:36;5.80;87.90
48994;DHT22;34804;49.214;12.276;2023-05-01T05:29:03;5.90;88.40
48994;DHT22;34804;49.214;12.276;2023-05-01T05:31:30;5.90;88.70
48994;DHT22;34804;49.214;12.276;2023-05-01T05:33:57;6.00;88.90
48994;DHT22;34804;49.214;12.276;2023-05-01T05:36:24;5.90;88.70
48994;DHT22;34804;49.214;12.276;2023-05-01T05:38:53;6.00;88.80
48994;DHT22;34804;49.214;12.276;2023-05-01T05:41:20;6.10;88.80
48994;DHT22;34804;49.214;12.276;2023-05-01T05:43:47;6.20;89.20
48994;DHT22;34804;49.214;12.276;2023-05-01T05:46:14;6.40;88.90
48994;DHT22;34804;49.214;12.276;2023-05-01T05:48:40;6.40;88.30
48994;DHT22;34804;49.214;12.276;2023-05-01T05:51:07;6.50;87.90
48994;DHT22;34804;49.214;12.276;2023-05-01T05:53:34;6.60;87.80
48994;DHT22;34804;49.214;12.276;2023-05-01T05:56:01;6.70;87.80
48994;DHT22;34804;49.214;12.276;2023-05-01T05:58:28;6.80;88.00
48994;DHT22;34804;49.214;12.276;2023-05-01T06:00:55;6.80;88.20
48994;DHT22;34804;49.214;12.276;2023-05-01T06:03:22;6.90;88.10
48994;DHT22;34804;49.214;12.276;2023-05-01T06:05:49;7.00;88.30
48994;DHT22;34804;49.214;12.276;2023-05-01T06:08:16;7.10;88.00
48994;DHT22;34804;49.214;12.276;2023-05-01T06:10:43;7.20;88.20
48994;DHT22;34804;49.214;12.276;2023-05-01T06:13:11;7.20;88.10
48994;DHT22;34804;49.214;12.276;2023-05-01T06:15:40;7.30;87.20
48994;DHT22;34804;49.214;12.276;2023-05-01T06:18:08;7.40;85.90
48994;DHT22;34804;49.214;12.276;2023-05-01T06:20:35;7.50;83.80
48994;DHT22;34804;49.214;12.276;2023-05-01T06:23:02;7.70;83.80
48994;DHT22;34804;49.214;12.276;2023-05-01T06:25:29;7.90;83.80
48994;DHT22;34804;49.214;12.276;2023-05-01T06:27:56;7.90;81.10
48994;DHT22;34804;49.214;12.276;2023-05-01T06:30:23;8.10;82.50
48994;DHT22;34804;49.214;12.276;2023-05-01T06:32:50;8.30;81.70
48994;DHT22;34804;49.214;12.276;2023-05-01T06:35:18;8.40;81.10
48994;DHT22;34804;49.214;12.276;2023-05-01T06:37:44;8.70;80.90
48994;DHT22;34804;49.214;12.276;2023-05-01T06:40:11;8.60;78.20
48994;DHT22;34804;49.214;12.276;2023-05-01T06:42:39;8.60;79.40
48994;DHT22;34804;49.214;12.276;2023-05-01T06:45:07;8.90;79.10
48994;DHT22;34804;49.214;12.276;2023-05-01T06:47:34;8.90;76.00
48994;DHT22;34804;49.214;12.276;2023-05-01T06:50:02;9.10;77.60
48994;DHT22;34804;49.214;12.276;2023-05-01T06:52:31;9.20;75.90
48994;DHT22;34804;49.214;12.276;2023-05-01T06:54:59;9.30;75.90
48994;DHT22;34804;49.214;12.276;2023-05-01T06:57:25;9.40;75.10
48994;DHT22;34804;49.214;12.276;2023-05-01T06:59:52;9.50;76.50
48994;DHT22;34804;49.214;12.276;2023-05-01T07:02:22;9.60;75.10
48994;DHT22;34804;49.214;12.276;2023-05-01T07:04:49;9.60;74.20
48994;DHT22;34804;49.214;12.276;2023-05-01T07:07:16;9.60;73.50
48994;DHT22;34804;49.214;12.276;2023-05-01T07:09:43;9.80;74.30
48994;DHT22;34804;49.214;12.276;2023-05-01T07:12:10;9.80;74.40
48994;DHT22;34804;49.214;12.276;2023-05-01T07:14:37;10.10;74.60
48994;DHT22;34804;49.214;12.276;2023-05-01T07:17:04;10.10;73.60
48994;DHT22;34804;49.214;12.276;2023-05-01T07:19:32;10.40;72.60
48994;DHT22;34804;49.214;12.276;2023-05-01T07:21:59;10.60;71.10
48994;DHT22;34804;49.214;12.276;2023-05-01T07:24:26;10.80;72.10
48994;DHT22;34804;49.214;12.276;2023-05-01T07:26:53;10.90;69.90
48994;DHT22;34804;49.214;12.276;2023-05-01T07:29:19;10.90;68.70
48994;DHT22;34804;49.214;12.276;2023-05-01T07:31:46;11.00;70.10
48994;DHT22;34804;49.214;12.276;2023-05-01T07:34:13;11.00;69.00
48994;DHT22;34804;49.214;12.276;2023-05-01T07:36:42;11.10;72.30
48994;DHT22;34804;49.214;12.276;2023-05-01T07:39:09;11.10;70.30
48994;DHT22;34804;49.214;12.276;2023-05-01T07:41:36;11.10;70.90
48994;DHT22;34804;49.214;12.276;2023-05-01T07:44:03;11.20;69.70
48994;DHT22;34804;49.214;12.276;2023-05-01T07:46:30;11.30;69.50
48994;DHT22;34804;49.214;12.276;2023-05-01T07:48:58;11.20;68.80
48994;DHT22;34804;49.214;12.276;2023-05-01T07:51:24;11.20;68.00
48994;DHT22;34804;49.214;12.276;2023-05-01T07:53:52;11.30;68.80
48994;DHT22;34804;49.214;12.276;2023-05-01T07:56:18;11.50;68.00
48994;DHT22;34804;49.214;12.276;2023-05-01T07:58:45;11.80;68.10
48994;DHT22;34804;49.214;12.276;2023-05-01T08:01:12;11.70;65.90
48994;DHT22;34804;49.214;12.276;2023-05-01T08:03:39;11.90;67.10
48994;DHT22;34804;49.214;12.276;2023-05-01T08:06:07;12.30;66.40
48994;DHT22;34804;49.214;12.276;2023-05-01T08:08:35;12.40;65.70
48994;DHT22;34804;49.214;12.276;2023-05-01T08:11:02;12.60;66.20
48994;DHT22;34804;49.214;12.276;2023-05-01T08:13:29;12.70;63.20
48994;DHT22;34804;49.214;12.276;2023-05-01T08:16:00;12.80;64.00
48994;DHT22;34804;49.214;12.276;2023-05-01T08:18:26;13.10;65.10
48994;DHT22;34804;49.214;12.276;2023-05-01T08:20:53;13.20;65.00
48994;DHT22;34804;49.214;12.276;2023-05-01T08:23:20;13.20;63.90
48994;DHT22;34804;49.214;12.276;2023-05-01T08:25:51;13.30;64.20
48994;DHT22;34804;49.214;12.276;2023-05-01T08:28:19;13.50;65.80
48994;DHT22;34804;49.214;12.276;2023-05-01T08:30:47;13.50;63.90
48994;DHT22;34804;49.214;12.276;2023-05-01T08:33:15;13.40;64.30
48994;DHT22;34804;49.214;12.276;2023-05-01T08:35:42;13.60;64.30
48994;DHT22;34804;49.214;12.276;2023-05-01T08:38:10;13.60;62.20
48994;DHT22;34804;49.214;12.276;2023-05-01T08:40:37;13.60;65.70
48994;DHT22;34804;49.214;12.276;2023-05-01T08:43:04;13.50;66.90
48994;DHT22;34804;49.214;12.276;2023-05-01T08:45:32;13.60;66.40
48994;DHT22;34804;49.214;12.276;2023-05-01T08:48:06;13.60;63.40
48994;DHT22;34804;49.214;12.276;2023-05-01T08:50:37;13.80;62.30
48994;DHT22;34804;49.214;12.276;2023-05-01T08:53:05;13.90;65.80
48994;DHT22;34804;49.214;12.276;2023-05-01T08:55:34;14.00;60.30
48994;DHT22;34804;49.214;12.276;2023-05-01T08:58:06;14.20;58.60
48994;DHT22;34804;49.214;12.276;2023-05-01T09:00:34;14.30;57.90
48994;DHT22;34804;49.214;12.276;2023-05-01T09:03:03;14.30;59.30
48994;DHT22;34804;49.214;12.276;2023-05-01T09:05:32;14.50;57.90
48994;DHT22;34804;49.214;12.276;2023-05-01T09:08:01;14.50;56.80
48994;DHT22;34804;49.214;12.276;2023-05-01T09:10:29;14.60;58.10
48994;DHT22;34804;49.214;12.276;2023-05-01T09:13:02;14.80;56.70
48994;DHT22;34804;49.214;12.276;2023-05-01T09:15:32;15.00;56.60
48994;DHT22;34804;49.214;12.276;2023-05-01T09:18:00;15.00;56.80
48994;DHT22;34804;49.214;12.276;2023-05-01T09:20:30;15.20;56.40
48994;DHT22;34804;49.214;12.276;2023-05-01T09:22:57;15.30;58.70
48994;DHT22;34804;49.214;12.276;2023-05-01T09:25:24;15.40;57.10
48994;DHT22;34804;49.214;12.276;2023-05-01T09:27:51;15.40;56.80
48994;DHT22;34804;49.214;12.276;2023-05-01T09:30:36;15.50;57.40
48994;DHT22;34804;49.214;12.276;2023-05-01T09:33:11;15.60;54.30
48994;DHT22;34804;49.214;12.276;2023-05-01T09:35:52;15.90;56.60
48994;DHT22;34804;49.214;12.276;2023-05-01T09:38:25;15.90;50.70
48994;DHT22;34804;49.214;12.276;2023-05-01T09:40:53;16.20;54.40
48994;DHT22;34804;49.214;12.276;2023-05-01T09:43:27;16.20;52.60
48994;DHT22;34804;49.214;12.276;2023-05-01T09:45:59;16.10;51.30
48994;DHT22;34804;49.214;12.276;2023-05-01T09:48:26;16.10;54.00
48994;DHT22;34804;49.214;12.276;2023-05-01T09:50:53;16.40;53.10
48994;DHT22;34804;49.214;12.276;2023-05-01T09:53:36;16.60;51.60
48994;DHT22;34804;49.214;12.276;2023-05-01T09:56:04;16.60;52.30
48994;DHT22;34804;49.214;12.276;2023-05-01T09:58:31;16.80;51.90
48994;DHT22;34804;49.214;12.276;2023-05-01T10:00:58;16.70;48.40
48994;DHT22;34804;49.214;12.276;2023-05-01T10:03:25;16.80;52.10
48994;DHT22;34804;49.214;12.276;2023-05-01T10:05:53;16.90;53.10
48994;DHT22;34804;49.214;12.276;2023-05-01T10:08:25;17.00;54.40
48994;DHT22;34804;49.214;12.276;2023-05-01T10:11:00;17.20;53.90
48994;DHT22;34804;49.214;12.276;2023-05-01T10:13:28;17.10;51.90
48994;DHT22;34804;49.214;12.276;2023-05-01T10:15:56;17.00;54.10
48994;DHT22;34804;49.214;12.276;2023-05-01T10:18:23;17.30;52.80
48994;DHT22;34804;49.214;12.276;2023-05-01T10:20:51;17.30;51.80
48994;DHT22;34804;49.214;12.276;2023-05-01T10:23:18;17.30;51.00
48994;DHT22;34804;49.214;12.276;2023-05-01T10:25:46;17.40;51.20
48994;DHT22;34804;49.214;12.276;2023-05-01T10:28:15;17.30;48.20
48994;DHT22;34804;49.214;12.276;2023-05-01T10:30:42;17.30;48.40
48994;DHT22;34804;49.214;12.276;2023-05-01T10:33:14;17.40;49.20
48994;DHT22;34804;49.214;12.276;2023-05-01T10:35:52;17.30;51.90
48994;DHT22;34804;49.214;12.276;2023-05-01T10:38:27;17.30;50.00
48994;DHT22;34804;49.214;12.276;2023-05-01T10:40:59;17.10;50.50
48994;DHT22;34804;49.214;12.276;2023-05-01T10:43:27;17.00;49.20
48994;DHT22;34804;49.214;12.276;2023-05-01T10:51:23;17.60;54.20
48994;DHT22;34804;49.214;12.276;2023-05-01T10:56:39;17.80;50.10
48994;DHT22;34804;49.214;12.276;2023-05-01T10:59:06;17.90;49.10
48994;DHT22;34804;49.214;12.276;2023-05-01T11:01:38;17.90;49.90
48994;DHT22;34804;49.214;12.276;2023-05-01T11:04:43;17.90;50.70
48994;DHT22;34804;49.214;12.276;2023-05-01T11:09:48;18.00;47.70
48994;DHT22;34804;49.214;12.276;2023-05-01T11:12:53;17.80;48.00
48994;DHT22;34804;49.214;12.276;2023-05-01T11:15:33;17.70;48.70
48994;DHT22;34804;49.214;12.276;2023-05-01T11:18:01;18.00;53.20
48994;DHT22;34804;49.214;12.276;2023-05-01T11:23:02;18.00;51.20
48994;DHT22;34804;49.214;12.276;2023-05-01T11:25:30;17.80;50.20
48994;DHT22;34804;49.214;12.276;2023-05-01T11:28:00;17.50;53.70
48994;DHT22;34804;49.214;12.276;2023-05-01T11:30:40;17.80;50.40
48994;DHT22;34804;49.214;12.276;2023-05-01T11:33:07;17.80;49.20
48994;DHT22;34804;49.214;12.276;2023-05-01T11:35:37;17.90;49.70
48994;DHT22;34804;49.214;12.276;2023-05-01T11:38:04;18.20;49.50
48994;DHT22;34804;49.214;12.276;2023-05-01T11:40:33;18.40;48.90
48994;DHT22;34804;49.214;12.276;2023-05-01T11:43:04;18.80;50.00
48994;DHT22;34804;49.214;12.276;2023-05-01T11:45:34;19.10;48.70
48994;DHT22;34804;49.214;12.276;2023-05-01T11:48:01;19.30;48.50
48994;DHT22;34804;49.214;12.276;2023-05-01T11:50:35;19.30;48.50
48994;DHT22;34804;49.214;12.276;2023-05-01T11:53:10;19.20;47.60
48994;DHT22;34804;49.214;12.276;2023-05-01T11:55:37;19.40;48.90
48994;DHT22;34804;49.214;12.276;2023-05-01T11:58:05;19.70;46.50
48994;DHT22;34804;49.214;12.276;2023-05-01T12:03:10;19.40;45.80
48994;DHT22;34804;49.214;12.276;2023-05-01T12:05:40;19.20;45.20
48994;DHT22;34804;49.214;12.276;2023-05-01T12:08:18;19.50;44.50
48994;DHT22;34804;49.214;12.276;2023-05-01T12:10:53;19.90;48.80
48994;DHT22;34804;49.214;12.276;2023-05-01T12:13:24;20.30;45.70
48994;DHT22;34804;49.214;12.276;2023-05-01T12:15:54;20.50;44.60
48994;DHT22;34804;49.214;12.276;2023-05-01T12:18:21;20.40;47.10
48994;DHT22;34804;49.214;12.276;2023-05-01T12:20:53;20.10;45.20
48994;DHT22;34804;49.214;12.276;2023-05-01T12:23:33;20.40;48.00
48994;DHT22;34804;49.214;12.276;2023-05-01T12:26:01;20.20;42.40
48994;DHT22;34804;49.214;12.276;2023-05-01T12:28:31;20.00;44.10
48994;DHT22;34804;49.214;12.276;2023-05-01T12:31:01;19.40;47.00
48994;DHT22;34804;49.214;12.276;2023-05-01T12:33:31;19.10;46.00
48994;DHT22;34804;49.214;12.276;2023-05-01T12:36:08;19.30;51.00
48994;DHT22;34804;49.214;12.276;2023-05-01T12:38:37;19.30;45.40
48994;DHT22;34804;49.214;12.276;2023-05-01T12:41:04;19.30;44.40
48994;DHT22;34804;49.214;12.276;2023-05-01T12:43:37;19.30;48.30
48994;DHT22;34804;49.214;12.276;2023-05-01T12:46:05;19.30;48.50
48994;DHT22;34804;49.214;12.276;2023-05-01T12:48:39;19.10;47.90
48994;DHT22;34804;49.214;12.276;2023-05-01T12:51:06;18.80;50.00
48994;DHT22;34804;49.214;12.276;2023-05-01T12:53:34;18.70;46.60
48994;DHT22;34804;49.214;12.276;2023-05-01T12:56:22;18.60;50.90
48994;DHT22;34804;49.214;12.276;2023-05-01T12:58:51;18.40;51.30
48994;DHT22;34804;49.214;12.276;2023-05-01T13:01:26;18.30;50.40
48994;DHT22;34804;49.214;12.276;2023-05-01T13:03:53;18.20;49.30
48994;DHT22;34804;49.214;12.276;2023-05-01T13:06:31;18.00;53.80
48994;DHT22;34804;49.214;12.276;2023-05-01T13:09:07;17.70;51.20
48994;DHT22;34804;49.214;12.276;2023-05-01T13:11:37;17.60;52.90
48994;DHT22;34804;49.214;12.276;2023-05-01T13:14:07;17.60;57.20
48994;DHT22;34804;49.214;12.276;2023-05-01T13:16:43;17.40;52.50
48994;DHT22;34804;49.214;12.276;2023-05-01T13:19:24;17.40;54.30
48994;DHT22;34804;49.214;12.276;2023-05-01T13:21:52;17.30;55.10
48994;DHT22;34804;49.214;12.276;2023-05-01T13:24:19;17.10;60.20
48994;DHT22;34804;49.214;12.276;2023-05-01T13:26:47;16.90;55.20
48994;DHT22;34804;49.214;12.276;2023-05-01T13:29:15;16.90;55.80
48994;DHT22;34804;49.214;12.276;2023-05-01T13:31:43;16.90;56.60
48994;DHT22;34804;49.214;12.276;2023-05-01T13:34:17;16.80;59.60
48994;DHT22;34804;49.214;12.276;2023-05-01T13:36:44;16.70;59.20
48994;DHT22;34804;49.214;12.276;2023-05-01T13:39:18;16.70;58.70
48994;DHT22;34804;49.214;12.276;2023-05-01T13:41:48;16.60;56.80
48994;DHT22;34804;49.214;12.276;2023-05-01T13:44:19;16.60;56.00
48994;DHT22;34804;49.214;12.276;2023-05-01T13:46:47;16.60;57.50
48994;DHT22;34804;49.214;12.276;2023-05-01T13:49:18;16.60;57.80
48994;DHT22;34804;49.214;12.276;2023-05-01T13:51:46;16.60;56.50
48994;DHT22;34804;49.214;12.276;2023-05-01T13:54:14;16.50;59.50
48994;DHT22;34804;49.214;12.276;2023-05-01T13:56:42;16.40;58.10
48994;DHT22;34804;49.214;12.276;2023-05-01T13:59:09;16.40;56.80
48994;DHT22;34804;49.214;12.276;2023-05-01T14:01:41;16.30;57.10
48994;DHT22;34804;49.214;12.276;2023-05-01T14:04:16;16.30;60.10
48994;DHT22;34804;49.214;12.276;2023-05-01T14:06:44;16.30;58.40
48994;DHT22;34804;49.214;12.276;2023-05-01T14:09:17;16.40;59.80
48994;DHT22;34804;49.214;12.276;2023-05-01T14:11:46;16.40;62.20
48994;DHT22;34804;49.214;12.276;2023-05-01T14:14:15;16.40;57.90
48994;DHT22;34804;49.214;12.276;2023-05-01T14:16:47;16.50;57.00
48994;DHT22;34804;49.214;12.276;2023-05-01T14:19:15;16.50;57.40
48994;DHT22;34804;49.214;12.276;2023-05-01T14:21:43;16.50;55.90
48994;DHT22;34804;49.214;12.276;2023-05-01T14:24:12;16.40;55.40
48994;DHT22;34804;49.214;12.276;2023-05-01T14:26:46;16.40;56.30
48994;DHT22;34804;49.214;12.276;2023-05-01T14:29:24;16.40;59.30
48994;DHT22;34804;49.214;12.276;2023-05-01T14:31:52;16.30;59.70
48994;DHT22;34804;49.214;12.276;2023-05-01T14:34:21;16.20;59.70
48994;DHT22;34804;49.214;12.276;2023-05-01T14:36:49;16.20;62.20
48994;DHT22;34804;49.214;12.276;2023-05-01T14:39:16;16.10;62.10
48994;DHT22;34804;49.214;12.276;2023-05-01T14:41:44;15.90;61.20
48994;DHT22;34804;49.214;12.276;2023-05-01T14:44:14;15.80;62.30
48994;DHT22;34804;49.214;12.276;2023-05-01T14:46:48;15.50;63.00
48994;DHT22;34804;49.214;12.276;2023-05-01T14:49:21;15.30;62.90
48994;DHT22;34804;49.214;12.276;2023-05-01T14:51:51;15.20;66.50
48994;DHT22;34804;49.214;12.276;2023-05-01T14:54:18;15.10;66.10
48994;DHT22;34804;49.214;12.276;2023-05-01T14:56:47;15.00;67.80
48994;DHT22;34804;49.214;12.276;2023-05-01T14:59:14;14.90;67.90
48994;DHT22;34804;49.214;12.276;2023-05-01T15:01:42;14.80;67.60
48994;DHT22;34804;49.214;12.276;2023-05-01T15:04:10;14.80;70.30
48994;DHT22;34804;49.214;12.276;2023-05-01T15:06:38;14.60;70.30
48994;DHT22;34804;49.214;12.276;2023-05-01T15:09:06;14.60;70.30
48994;DHT22;34804;49.214;12.276;2023-05-01T15:11:33;14.60;69.90
48994;DHT22;34804;49.214;12.276;2023-05-01T15:14:00;14.80;71.70
48994;DHT22;34804;49.214;12.276;2023-05-01T15:16:28;14.70;71.10
48994;DHT22;34804;49.214;12.276;2023-05-01T15:18:57;14.70;69.40
48994;DHT22;34804;49.214;12.276;2023-05-01T15:21:24;14.80;71.40
48994;DHT22;34804;49.214;12.276;2023-05-01T15:23:51;14.70;70.70
48994;DHT22;34804;49.214;12.276;2023-05-01T15:26:17;14.60;69.60
48994;DHT22;34804;49.214;12.276;2023-05-01T15:28:45;14.60;71.50
48994;DHT22;34804;49.214;12.276;2023-05-01T15:31:11;14.60;71.80
48994;DHT22;34804;49.214;12.276;2023-05-01T15:33:38;14.60;71.90
48994;DHT22;34804;49.214;12.276;2023-05-01T15:36:06;14.60;71.80
48994;DHT22;34804;49.214;12.276;2023-05-01T15:38:33;14.60;73.00
48994;DHT22;34804;49.214;12.276;2023-05-01T15:41:00;14.60;72.50
48994;DHT22;34804;49.214;12.276;2023-05-01T15:43:27;14.50;71.00
48994;DHT22;34804;49.214;12.276;2023-05-01T15:45:54;14.50;72.60
48994;DHT22;34804;49.214;12.276;2023-05-01T15:48:25;14.50;72.30
48994;DHT22;34804;49.214;12.276;2023-05-01T15:50:51;14.50;72.40
48994;DHT22;34804;49.214;12.276;2023-05-01T15:53:18;14.60;74.20
48994;DHT22;34804;49.214;12.276;2023-05-01T15:55:49;14.60;75.70
48994;DHT22;34804;49.214;12.276;2023-05-01T15:58:37;14.60;76.70
48994;DHT22;34804;49.214;12.276;2023-05-01T16:01:05;14.50;77.90
48994;DHT22;34804;49.214;12.276;2023-05-01T16:03:32;14.40;78.40